createdAt,value
2023-03-28T00:00:30.402Z,68.52
2023-03-28T00:02:59.575Z,68.54
2023-03-28T00:05:28.191Z,68.44
2023-03-28T00:07:56.715Z,68.64
2023-03-28T00:10:24.890Z,68.59
2023-03-28T00:12:52.642Z,68.75
2023-03-28T00:15:20.447Z,69.02
2023-03-28T00:17:48.266Z,68.60
2023-03-28T00:20:17.895Z,68.56
2023-03-28T00:22:45.657Z,68.71
2023-03-28T00:25:13.432Z,68.98
2023-03-28T00:27:41.329Z,68.84
2023-03-28T00:30:10.930Z,68.82
2023-03-28T00:32:38.689Z,68.56
2023-03-28T00:35:07.459Z,68.81
2023-03-28T00:37:36.548Z,68.75
2023-03-28T00:40:07.416Z,68.68
2023-03-28T00:42:35.186Z,68.96
2023-03-28T00:45:02.883Z,69.07
2023-03-28T00:47:37.891Z,69.12
2023-03-28T00:50:10.942Z,68.83
2023-03-28T00:52:42.784Z,68.95
2023-03-28T00:55:14.823Z,69.35
2023-03-28T00:57:42.971Z,69.18
2023-03-28T01:00:12.749Z,68.98
2023-03-28T01:02:42.489Z,69.21
2023-03-28T01:05:10.925Z,68.85
2023-03-28T01:07:45.431Z,68.97
2023-03-28T01:10:13.914Z,68.92
2023-03-28T01:12:42.557Z,68.46
2023-03-28T01:15:11.537Z,68.55
2023-03-28T01:17:41.450Z,68.80
2023-03-28T01:20:37.042Z,68.75
2023-03-28T01:23:35.458Z,69.06
2023-03-28T01:26:32.217Z,69.04
2023-03-28T01:29:24.658Z,68.98
2023-03-28T01:32:13.270Z,68.92
2023-03-28T01:34:53.531Z,69.05
2023-03-28T01:37:32.623Z,69.15
2023-03-28T01:40:30.104Z,69.38
2023-03-28T01:43:11.273Z,69.54
2023-03-28T01:45:45.439Z,69.85
2023-03-28T01:48:19.046Z,69.68
2023-03-28T01:50:49.504Z,69.97
2023-03-28T01:53:23.598Z,69.79
2023-03-28T01:55:54.412Z,70.25
2023-03-28T01:58:26.199Z,70.22
2023-03-28T02:00:59.453Z,69.91
2023-03-28T02:03:29.718Z,69.94
2023-03-28T02:05:58.608Z,69.97
2023-03-28T02:08:30.390Z,70.01
2023-03-28T02:10:58.452Z,69.70
2023-03-28T02:13:29.400Z,69.54
2023-03-28T02:15:59.009Z,69.57
2023-03-28T02:18:29.831Z,69.78
2023-03-28T02:21:00.949Z,69.34
2023-03-28T02:23:32.803Z,69.39
2023-03-28T02:26:00.683Z,69.49
2023-03-28T02:28:29.021Z,69.08
2023-03-28T02:30:56.719Z,69.56
2023-03-28T02:33:35.060Z,69.31
2023-03-28T02:36:12.316Z,69.33
2023-03-28T02:38:46.408Z,69.42
2023-03-28T02:41:21.002Z,69.62
2023-03-28T02:43:55.558Z,69.71
2023-03-28T02:46:37.771Z,69.58
2023-03-28T02:49:27.986Z,69.84
2023-03-28T02:52:10.914Z,69.80
2023-03-28T02:54:44.943Z,70.07
2023-03-28T02:57:16.592Z,70.27
2023-03-28T02:59:48.061Z,70.15
2023-03-28T03:02:17.452Z,70.11
2023-03-28T03:04:45.521Z,70.17
2023-03-28T03:07:13.866Z,70.21
2023-03-28T03:09:45.897Z,69.99
2023-03-28T03:12:13.764Z,69.99
2023-03-28T03:14:42.155Z,69.66
2023-03-28T03:17:09.882Z,69.17
2023-03-28T03:19:37.573Z,69.44
2023-03-28T03:22:05.182Z,69.29
2023-03-28T03:24:34.595Z,69.45
2023-03-28T03:27:03.819Z,69.84
2023-03-28T03:29:38.253Z,69.98
2023-03-28T03:32:07.115Z,70.59
2023-03-28T03:34:36.747Z,70.68
2023-03-28T03:37:04.600Z,70.78
2023-03-28T03:39:32.307Z,71.06
2023-03-28T03:42:00.044Z,71.32
2023-03-28T03:44:29.789Z,71.19
2023-03-28T03:46:57.944Z,71.21
2023-03-28T03:49:25.763Z,70.95
2023-03-28T03:51:53.554Z,70.63
2023-03-28T03:54:21.290Z,70.82
2023-03-28T03:56:49.098Z,70.76
2023-03-28T03:59:17.199Z,70.39
2023-03-28T04:01:46.394Z,70.43
2023-03-28T04:04:14.173Z,70.55
2023-03-28T04:06:41.913Z,70.89
2023-03-28T04:09:09.879Z,70.95
2023-03-28T04:11:37.543Z,71.29
2023-03-28T04:14:05.393Z,71.60
2023-03-28T04:16:40.934Z,71.43
2023-03-28T04:19:13.877Z,71.74
2023-03-28T04:21:42.867Z,71.77
2023-03-28T04:24:15.340Z,71.58
2023-03-28T04:26:43.187Z,71.84
2023-03-28T04:29:11.272Z,71.84
2023-03-28T04:31:39.857Z,72.13
2023-03-28T04:34:08.841Z,71.48
2023-03-28T04:36:41.019Z,71.80
2023-03-28T04:39:08.973Z,72.32
2023-03-28T04:41:36.732Z,72.60
2023-03-28T04:44:04.460Z,72.76
2023-03-28T04:46:32.190Z,73.01
2023-03-28T04:48:59.922Z,73.63
2023-03-28T04:51:28.629Z,73.18
2023-03-28T04:53:57.770Z,73.66
2023-03-28T04:56:25.751Z,73.66
2023-03-28T04:58:53.518Z,73.39
2023-03-28T05:01:22.623Z,73.48
2023-03-28T05:03:50.595Z,73.44
2023-03-28T05:06:18.635Z,73.27
2023-03-28T05:08:46.347Z,73.32
2023-03-28T05:11:15.442Z,73.07
2023-03-28T05:13:43.154Z,72.95
2023-03-28T05:16:10.931Z,73.02
2023-03-28T05:18:38.650Z,72.94
2023-03-28T05:21:07.243Z,72.85
2023-03-28T05:23:34.934Z,72.91
2023-03-28T05:26:02.967Z,72.62
2023-03-28T05:28:32.441Z,72.56
2023-03-28T05:31:00.387Z,72.49
2023-03-28T05:33:28.199Z,72.67
2023-03-28T05:35:55.903Z,72.28
2023-03-28T05:38:23.644Z,72.47
2023-03-28T05:40:51.346Z,72.46
2023-03-28T05:43:19.025Z,72.33
2023-03-28T05:45:48.973Z,72.48
2023-03-28T05:48:16.743Z,72.28
2023-03-28T05:50:45.558Z,72.36
2023-03-28T05:53:13.244Z,72.25
2023-03-28T05:55:40.933Z,72.39
2023-03-28T05:58:08.702Z,72.10
2023-03-28T06:00:37.175Z,72.11
2023-03-28T06:03:07.485Z,72.32
2023-03-28T06:05:35.772Z,72.10
2023-03-28T06:08:03.540Z,72.09
2023-03-28T06:10:31.486Z,72.22
2023-03-28T06:12:59.158Z,72.33
2023-03-28T06:15:27.281Z,72.41
2023-03-28T06:17:55.119Z,72.21
2023-03-28T06:20:24.152Z,72.28
2023-03-28T06:22:52.160Z,72.34
2023-03-28T06:25:19.864Z,72.13
2023-03-28T06:27:47.569Z,72.36
2023-03-28T06:30:16.077Z,72.38
2023-03-28T06:32:43.873Z,72.56
2023-03-28T06:35:11.692Z,72.66
2023-03-28T06:37:40.862Z,72.79
2023-03-28T06:40:09.751Z,72.74
2023-03-28T06:42:37.547Z,72.61
2023-03-28T06:45:06.043Z,72.97
2023-03-28T06:47:33.801Z,73.03
2023-03-28T06:50:01.643Z,72.72
2023-03-28T06:52:29.498Z,72.97
2023-03-28T06:54:58.942Z,72.90
2023-03-28T06:57:26.739Z,72.86
2023-03-28T06:59:54.467Z,72.53
2023-03-28T07:02:22.320Z,72.63
2023-03-28T07:04:50.094Z,72.74
2023-03-28T07:07:17.777Z,72.94
2023-03-28T07:09:45.653Z,72.64
2023-03-28T07:12:14.702Z,72.75
2023-03-28T07:14:44.557Z,73.90
2023-03-28T07:17:12.457Z,72.74
2023-03-28T07:19:40.232Z,72.15
2023-03-28T07:22:07.942Z,72.55
2023-03-28T07:24:35.600Z,72.06
2023-03-28T07:27:14.800Z,72.04
2023-03-28T07:29:44.385Z,71.38
2023-03-28T07:32:12.334Z,71.77
2023-03-28T07:34:40.080Z,71.74
2023-03-28T07:37:08.908Z,71.01
2023-03-28T07:39:39.856Z,71.44
2023-03-28T07:42:11.000Z,71.38
2023-03-28T07:44:40.313Z,71.38
2023-03-28T07:47:11.731Z,71.56
2023-03-28T07:49:39.597Z,70.97
2023-03-28T07:52:07.440Z,71.42
2023-03-28T07:54:35.255Z,71.08
2023-03-28T07:57:03.049Z,70.02
2023-03-28T07:59:30.905Z,70.38
2023-03-28T08:01:58.651Z,70.84
2023-03-28T08:04:27.800Z,69.81
2023-03-28T08:06:56.130Z,70.03
2023-03-28T08:09:23.887Z,69.12
2023-03-28T08:11:51.605Z,68.78
2023-03-28T08:14:19.602Z,68.36
2023-03-28T08:16:47.493Z,67.98
2023-03-28T08:19:15.373Z,68.20
2023-03-28T08:21:44.736Z,67.81
2023-03-28T08:24:19.559Z,67.71
2023-03-28T08:26:53.523Z,67.48
2023-03-28T08:29:21.739Z,67.80
2023-03-28T08:31:49.580Z,65.96
2023-03-28T08:34:17.401Z,66.00
2023-03-28T08:36:47.413Z,65.29
2023-03-28T08:39:15.399Z,64.79
2023-03-28T08:42:11.495Z,64.83
2023-03-28T08:44:48.631Z,65.43
2023-03-28T08:47:18.771Z,64.56
2023-03-28T08:49:48.417Z,63.21
2023-03-28T08:52:20.214Z,63.67
2023-03-28T08:54:51.897Z,62.07
2023-03-28T08:57:22.046Z,62.32
2023-03-28T08:59:53.517Z,61.01
2023-03-28T09:02:22.804Z,62.06
2023-03-28T09:04:50.842Z,61.76
2023-03-28T09:07:26.568Z,59.76
2023-03-28T09:10:04.205Z,59.90
2023-03-28T09:12:40.886Z,58.77
2023-03-28T09:15:20.624Z,58.72
2023-03-28T09:18:01.882Z,59.61
2023-03-28T09:20:33.778Z,59.03
2023-03-28T09:23:13.920Z,58.24
2023-03-28T09:25:44.469Z,57.42
2023-03-28T09:28:24.797Z,58.00
2023-03-28T09:30:53.357Z,58.02
2023-03-28T09:33:25.660Z,56.07
2023-03-28T09:35:57.175Z,55.18
2023-03-28T09:38:30.711Z,55.20
2023-03-28T09:41:00.174Z,55.26
2023-03-28T09:43:32.464Z,55.37
2023-03-28T09:46:03.209Z,55.14
2023-03-28T09:48:33.103Z,54.62
2023-03-28T09:51:02.620Z,54.16
2023-03-28T09:53:33.522Z,53.99
2023-03-28T09:56:05.111Z,54.16
2023-03-28T09:58:49.899Z,53.27
2023-03-28T10:01:32.978Z,52.84
2023-03-28T10:04:01.372Z,52.24
2023-03-28T10:06:30.974Z,51.91
2023-03-28T10:09:18.336Z,52.45
2023-03-28T10:11:49.765Z,52.64
2023-03-28T10:14:33.628Z,53.02
2023-03-28T10:17:06.296Z,52.65
2023-03-28T10:19:35.987Z,52.81
2023-03-28T10:22:06.486Z,52.45
2023-03-28T10:24:37.160Z,51.97
2023-03-28T10:27:18.188Z,53.29
2023-03-28T10:29:46.703Z,53.35
2023-03-28T10:32:15.579Z,53.81
2023-03-28T10:34:43.230Z,53.66
2023-03-28T10:37:24.786Z,53.80
2023-03-28T10:40:06.802Z,54.07
2023-03-28T10:42:42.491Z,53.84
2023-03-28T10:45:21.205Z,52.79
2023-03-28T10:47:50.700Z,51.89
2023-03-28T10:50:24.185Z,52.44
2023-03-28T10:52:55.608Z,52.44
2023-03-28T10:55:27.399Z,52.60
2023-03-28T10:58:01.014Z,52.77
2023-03-28T11:00:32.576Z,53.57
2023-03-28T11:03:16.470Z,53.82
2023-03-28T11:06:05.654Z,53.57
2023-03-28T11:08:43.032Z,52.57
2023-03-28T11:11:29.238Z,51.96
2023-03-28T11:14:01.640Z,51.86
2023-03-28T11:16:39.494Z,53.06
2023-03-28T11:19:15.002Z,51.98
2023-03-28T11:21:46.245Z,50.79
2023-03-28T11:24:23.344Z,51.74
2023-03-28T11:27:12.414Z,50.62
2023-03-28T11:29:45.988Z,50.62
2023-03-28T11:32:19.462Z,51.09
2023-03-28T11:34:56.084Z,49.81
2023-03-28T11:37:27.883Z,50.01
2023-03-28T11:39:58.309Z,51.90
2023-03-28T11:42:30.013Z,50.93
2023-03-28T11:45:02.857Z,51.13
2023-03-28T11:47:34.069Z,50.41
2023-03-28T11:50:05.389Z,50.63
2023-03-28T11:52:36.851Z,49.13
2023-03-28T11:55:07.908Z,49.12
2023-03-28T11:57:40.220Z,50.01
2023-03-28T12:00:26.731Z,49.94
2023-03-28T12:03:09.958Z,49.60
2023-03-28T12:05:40.532Z,48.45
2023-03-28T12:08:12.541Z,48.11
2023-03-28T12:10:43.291Z,47.73
2023-03-28T12:13:16.143Z,47.34
2023-03-28T12:15:47.895Z,48.08
2023-03-28T12:18:19.063Z,48.09
2023-03-28T12:20:51.234Z,48.53
2023-03-28T12:23:23.896Z,48.55
2023-03-28T12:25:55.880Z,48.33
2023-03-28T12:28:28.425Z,47.23
2023-03-28T12:31:06.112Z,48.56
2023-03-28T12:33:44.611Z,48.26
2023-03-28T12:36:18.574Z,48.09
2023-03-28T12:38:50.034Z,48.15
2023-03-28T12:41:20.737Z,47.88
2023-03-28T12:43:52.416Z,48.03
2023-03-28T12:46:23.887Z,48.38
2023-03-28T12:48:54.804Z,49.00
2023-03-28T12:51:25.488Z,49.58
2023-03-28T12:54:02.826Z,47.93
2023-03-28T12:56:30.742Z,47.89
2023-03-28T12:58:59.979Z,48.26
2023-03-28T13:01:33.273Z,48.50
2023-03-28T13:04:07.580Z,48.23
2023-03-28T13:06:43.771Z,46.92
2023-03-28T13:09:27.380Z,47.10
2023-03-28T13:11:57.612Z,47.51
2023-03-28T13:14:36.365Z,47.49
2023-03-28T13:17:17.252Z,47.39
2023-03-28T13:19:52.295Z,47.17
2023-03-28T13:22:29.209Z,46.19
2023-03-28T13:25:21.145Z,46.47
2023-03-28T13:27:49.579Z,45.73
2023-03-28T13:30:20.402Z,44.22
2023-03-28T13:32:50.983Z,44.60
2023-03-28T13:35:46.337Z,45.53
2023-03-28T13:38:25.251Z,45.32
2023-03-28T13:40:55.849Z,45.98
2023-03-28T13:43:26.082Z,45.83
2023-03-28T13:45:58.745Z,46.17
2023-03-28T13:48:31.551Z,46.21
2023-03-28T13:51:00.845Z,46.31
2023-03-28T13:53:46.543Z,46.75
2023-03-28T13:56:23.325Z,46.89
2023-03-28T13:58:52.738Z,46.24
2023-03-28T14:01:25.810Z,46.27
2023-03-28T14:03:55.151Z,46.60
2023-03-28T14:06:24.630Z,46.91
2023-03-28T14:08:53.586Z,46.50
2023-03-28T14:11:24.312Z,47.03
2023-03-28T14:14:02.781Z,46.93
2023-03-28T14:16:32.005Z,47.12
2023-03-28T14:19:02.261Z,47.03
2023-03-28T14:21:29.976Z,46.29
2023-03-28T14:23:59.454Z,46.46
2023-03-28T14:26:28.789Z,46.23
2023-03-28T14:29:01.163Z,45.99
2023-03-28T14:31:32.085Z,45.44
2023-03-28T14:34:00.223Z,46.67
2023-03-28T14:36:31.120Z,45.65
2023-03-28T14:39:13.292Z,44.98
2023-03-28T14:41:43.092Z,46.02
2023-03-28T14:44:13.087Z,46.61
2023-03-28T14:46:42.289Z,46.15
2023-03-28T14:49:19.401Z,46.17
2023-03-28T14:51:48.596Z,46.07
2023-03-28T14:54:17.541Z,45.62
2023-03-28T14:56:45.941Z,44.66
2023-03-28T14:59:17.858Z,46.04
2023-03-28T15:01:47.959Z,45.75
2023-03-28T15:04:15.939Z,45.08
2023-03-28T15:06:43.721Z,45.00
2023-03-28T15:09:12.890Z,45.54
2023-03-28T15:11:43.558Z,45.42
2023-03-28T15:14:15.702Z,46.30
2023-03-28T15:16:45.657Z,45.31
2023-03-28T15:19:19.193Z,46.36
2023-03-28T15:21:53.938Z,44.66
2023-03-28T15:24:21.962Z,44.38
2023-03-28T15:26:53.766Z,45.44
2023-03-28T15:29:22.689Z,44.91
2023-03-28T15:31:50.645Z,44.78
2023-03-28T15:34:24.786Z,45.42
2023-03-28T15:36:54.380Z,44.43
2023-03-28T15:39:25.512Z,45.33
2023-03-28T15:41:55.668Z,44.61
2023-03-28T15:44:28.283Z,45.63
2023-03-28T15:46:58.640Z,45.23
2023-03-28T15:49:28.258Z,45.88
2023-03-28T15:51:57.356Z,45.61
2023-03-28T15:54:31.502Z,45.21
2023-03-28T15:57:02.525Z,45.21
2023-03-28T15:59:33.990Z,45.04
2023-03-28T16:02:32.438Z,45.17
2023-03-28T16:05:02.738Z,45.24
2023-03-28T16:07:34.476Z,44.55
2023-03-28T16:10:02.139Z,44.38
2023-03-28T16:12:29.898Z,44.51
2023-03-28T16:14:57.730Z,45.01
2023-03-28T16:17:26.395Z,45.67
2023-03-28T16:19:54.204Z,45.67
2023-03-28T16:22:23.350Z,45.58
2023-03-28T16:24:52.310Z,44.93
2023-03-28T16:27:20.884Z,45.41
2023-03-28T16:29:48.809Z,45.51
2023-03-28T16:32:17.103Z,45.04
2023-03-28T16:34:45.531Z,45.29
2023-03-28T16:37:13.216Z,45.79
2023-03-28T16:39:42.225Z,44.81
2023-03-28T16:42:09.995Z,46.63
2023-03-28T16:44:37.746Z,46.09
2023-03-28T16:47:05.715Z,46.00
2023-03-28T16:49:33.412Z,45.52
2023-03-28T16:52:01.096Z,46.39
2023-03-28T16:54:28.799Z,46.06
2023-03-28T16:56:57.924Z,45.85
2023-03-28T16:59:25.822Z,45.89
2023-03-28T17:01:53.820Z,46.47
2023-03-28T17:04:21.556Z,46.21
2023-03-28T17:06:49.282Z,46.09
2023-03-28T17:09:17.007Z,46.95
2023-03-28T17:11:44.748Z,46.55
2023-03-28T17:14:13.835Z,46.37
2023-03-28T17:16:41.872Z,46.10
2023-03-28T17:19:09.625Z,46.63
2023-03-28T17:21:37.491Z,46.66
2023-03-28T17:24:09.088Z,46.16
2023-03-28T17:26:36.770Z,46.06
2023-03-28T17:29:07.278Z,46.80
2023-03-28T17:31:37.460Z,46.40
2023-03-28T17:34:05.504Z,46.38
2023-03-28T17:36:34.756Z,46.34
2023-03-28T17:39:03.310Z,46.01
2023-03-28T17:41:31.545Z,45.94
2023-03-28T17:43:59.878Z,46.00
2023-03-28T17:46:28.004Z,46.41
2023-03-28T17:48:57.184Z,46.51
2023-03-28T17:51:25.171Z,46.04
2023-03-28T17:53:53.260Z,46.10
2023-03-28T17:56:21.056Z,46.49
2023-03-28T17:58:48.737Z,46.43
2023-03-28T18:01:18.433Z,46.18
2023-03-28T18:03:46.842Z,46.12
2023-03-28T18:06:16.008Z,46.26
2023-03-28T18:08:44.671Z,46.21
2023-03-28T18:11:14.573Z,45.82
2023-03-28T18:13:43.225Z,46.17
2023-03-28T18:16:13.485Z,45.56
2023-03-28T18:18:41.496Z,45.59
2023-03-28T18:21:11.132Z,46.12
2023-03-28T18:23:40.391Z,46.82
2023-03-28T18:26:08.327Z,46.06
2023-03-28T18:28:36.873Z,46.20
2023-03-28T18:31:08.815Z,46.55
2023-03-28T18:33:36.584Z,46.66
2023-03-28T18:36:04.671Z,46.27
2023-03-28T18:38:36.909Z,46.37
2023-03-28T18:41:08.256Z,46.31
2023-03-28T18:43:36.159Z,46.28
2023-03-28T18:46:04.592Z,45.76
2023-03-28T18:48:32.661Z,46.14
2023-03-28T18:51:01.606Z,46.20
2023-03-28T18:53:29.956Z,46.01
2023-03-28T18:55:57.750Z,46.01
2023-03-28T18:58:27.145Z,46.27
2023-03-28T19:00:59.300Z,46.12
2023-03-28T19:03:27.768Z,46.38
2023-03-28T19:05:57.342Z,46.30
2023-03-28T19:08:26.371Z,46.76
2023-03-28T19:10:54.315Z,46.16
2023-03-28T19:13:22.208Z,45.90
2023-03-28T19:16:00.270Z,45.79
2023-03-28T19:18:28.557Z,46.25
2023-03-28T19:20:58.662Z,46.57
2023-03-28T19:23:28.053Z,47.01
2023-03-28T19:25:56.111Z,47.13
2023-03-28T19:28:24.219Z,47.25
2023-03-28T19:30:59.162Z,47.33
2023-03-28T19:33:26.985Z,47.00
2023-03-28T19:35:54.860Z,46.78
2023-03-28T19:38:23.166Z,47.26
2023-03-28T19:40:52.192Z,47.79
2023-03-28T19:43:23.678Z,47.53
2023-03-28T19:45:51.388Z,47.51
2023-03-28T19:48:20.508Z,47.56
2023-03-28T19:50:50.134Z,48.22
2023-03-28T19:53:17.888Z,48.31
2023-03-28T19:55:52.235Z,48.35
2023-03-28T19:58:20.021Z,48.76
2023-03-28T20:00:48.757Z,48.36
2023-03-28T20:03:19.392Z,49.20
2023-03-28T20:05:49.530Z,49.77
2023-03-28T20:08:18.318Z,50.08
2023-03-28T20:10:47.850Z,50.62
2023-03-28T20:13:16.096Z,51.73
2023-03-28T20:15:45.715Z,52.02
2023-03-28T20:18:19.804Z,52.62
2023-03-28T20:20:51.947Z,52.56
2023-03-28T20:23:22.146Z,53.44
2023-03-28T20:25:49.848Z,53.69
2023-03-28T20:28:17.534Z,53.71
2023-03-28T20:30:46.389Z,54.34
2023-03-28T20:33:14.238Z,55.01
2023-03-28T20:35:42.693Z,55.77
2023-03-28T20:38:11.852Z,56.87
2023-03-28T20:40:41.083Z,57.89
2023-03-28T20:43:09.990Z,58.57
2023-03-28T20:45:38.890Z,58.98
2023-03-28T20:48:09.726Z,59.51
2023-03-28T20:50:41.374Z,59.79
2023-03-28T20:53:10.952Z,60.25
2023-03-28T20:55:38.881Z,61.02
2023-03-28T20:58:06.860Z,61.63
2023-03-28T21:00:35.758Z,62.06
2023-03-28T21:03:03.760Z,61.98
2023-03-28T21:05:31.720Z,62.14
2023-03-28T21:08:00.315Z,62.56
2023-03-28T21:10:29.884Z,63.06
2023-03-28T21:12:57.568Z,63.03
2023-03-28T21:15:27.302Z,62.97
2023-03-28T21:17:55.027Z,63.14
2023-03-28T21:20:22.728Z,63.47
2023-03-28T21:22:50.807Z,63.83
2023-03-28T21:25:19.137Z,63.93
2023-03-28T21:27:48.288Z,64.05
2023-03-28T21:30:16.606Z,64.24
2023-03-28T21:32:44.310Z,64.25
2023-03-28T21:35:15.221Z,64.15
2023-03-28T21:37:43.110Z,64.70
2023-03-28T21:40:11.329Z,64.76
2023-03-28T21:42:39.149Z,64.61
2023-03-28T21:45:09.526Z,64.90
2023-03-28T21:47:38.138Z,65.25
2023-03-28T21:50:07.389Z,65.02
2023-03-28T21:52:35.531Z,65.71
2023-03-28T21:55:03.372Z,65.97
2023-03-28T21:57:31.108Z,65.54
2023-03-28T21:59:58.813Z,65.74
2023-03-28T22:02:27.926Z,66.08
2023-03-28T22:04:55.673Z,66.64
2023-03-28T22:07:23.396Z,67.10
2023-03-28T22:09:51.074Z,67.39
2023-03-28T22:12:22.795Z,68.20
2023-03-28T22:14:50.675Z,68.44
2023-03-28T22:17:18.552Z,69.11
2023-03-28T22:19:47.625Z,69.21
2023-03-28T22:22:17.827Z,69.58
2023-03-28T22:24:46.026Z,70.38
2023-03-28T22:27:14.190Z,70.19
2023-03-28T22:29:42.184Z,70.96
2023-03-28T22:32:10.482Z,70.56
2023-03-28T22:34:38.121Z,70.59
2023-03-28T22:37:07.212Z,70.35
2023-03-28T22:39:34.933Z,70.38
2023-03-28T22:42:02.697Z,70.31
2023-03-28T22:44:31.030Z,70.56
2023-03-28T22:47:02.303Z,69.90
2023-03-28T22:49:30.078Z,70.18
2023-03-28T22:52:01.835Z,70.33
2023-03-28T22:54:32.134Z,70.33
2023-03-28T22:57:00.848Z,70.60
2023-03-28T22:59:28.760Z,70.68
2023-03-28T23:01:56.858Z,70.74
2023-03-28T23:04:24.738Z,70.50
2023-03-28T23:06:52.773Z,70.85
2023-03-28T23:09:20.996Z,70.74
2023-03-28T23:11:50.119Z,71.07
2023-03-28T23:14:17.754Z,70.79
2023-03-28T23:16:45.867Z,70.87
2023-03-28T23:19:13.643Z,71.18
2023-03-28T23:21:41.595Z,71.17
2023-03-28T23:24:09.836Z,71.27
2023-03-28T23:26:37.584Z,71.09
2023-03-28T23:29:06.989Z,71.10
2023-03-28T23:31:34.771Z,71.20
2023-03-28T23:34:02.447Z,70.98
2023-03-28T23:36:30.204Z,71.34
2023-03-28T23:38:58.408Z,70.86
2023-03-28T23:41:26.454Z,71.35
2023-03-28T23:43:54.210Z,71.19
2023-03-28T23:46:23.993Z,71.13
2023-03-28T23:48:51.965Z,71.38
2023-03-28T23:51:19.644Z,71.40
2023-03-28T23:53:47.319Z,71.36
2023-03-28T23:56:15.466Z,71.30
2023-03-28T23:58:43.213Z,71.50
